sensor_id;sensor_type;location;lat;lon;timestamp;P1;durP1;ratioP1;P2;durP2;ratioP2
16543;SDS011;8384;47.996;7.786;2023-04-06T00:01:19;4.85;;;4.45;;
16543;SDS011;8384;47.996;7.786;2023-04-06T00:03:44;4.50;;;4.10;;
16543;SDS011;8384;47.996;7.786;2023-04-06T00:06:09;4.43;;;4.03;;
16543;SDS011;8384;47.996;7.786;2023-04-06T00:08:35;4.63;;;4.23;;
16543;SDS011;8384;47.996;7.786;2023-04-06T00:11:00;5.17;;;4.67;;
16543;SDS011;8384;47.996;7.786;2023-04-06T00:13:26;4.30;;;4.00;;
16543;SDS011;8384;47.996;7.786;2023-04-06T00:15:51;4.53;;;4.20;;
16543;SDS011;8384;47.996;7.786;2023-04-06T00:18:16;4.90;;;4.50;;
16543;SDS011;8384;47.996;7.786;2023-04-06T00:20:42;4.90;;;4.50;;
16543;SDS011;8384;47.996;7.786;2023-04-06T00:23:07;4.87;;;4.40;;
16543;SDS011;8384;47.996;7.786;2023-04-06T00:25:32;4.80;;;4.40;;
16543;SDS011;8384;47.996;7.786;2023-04-06T00:27:57;4.60;;;4.20;;
16543;SDS011;8384;47.996;7.786;2023-04-06T00:30:23;4.60;;;4.20;;
16543;SDS011;8384;47.996;7.786;2023-04-06T00:32:48;5.73;;;4.60;;
16543;SDS011;8384;47.996;7.786;2023-04-06T00:35:13;4.67;;;4.20;;
16543;SDS011;8384;47.996;7.786;2023-04-06T00:37:40;4.63;;;4.22;;
16543;SDS011;8384;47.996;7.786;2023-04-06T00:40:05;4.75;;;4.35;;
16543;SDS011;8384;47.996;7.786;2023-04-06T00:42:31;5.60;;;4.50;;
16543;SDS011;8384;47.996;7.786;2023-04-06T00:44:57;4.90;;;4.40;;
16543;SDS011;8384;47.996;7.786;2023-04-06T00:47:24;4.97;;;4.47;;
16543;SDS011;8384;47.996;7.786;2023-04-06T00:49:51;4.60;;;4.20;;
16543;SDS011;8384;47.996;7.786;2023-04-06T00:52:19;4.75;;;4.35;;
16543;SDS011;8384;47.996;7.786;2023-04-06T00:54:45;4.20;;;3.90;;
16543;SDS011;8384;47.996;7.786;2023-04-06T00:57:11;4.33;;;3.93;;
16543;SDS011;8384;47.996;7.786;2023-04-06T00:59:37;4.30;;;3.90;;
16543;SDS011;8384;47.996;7.786;2023-04-06T01:02:03;4.30;;;4.00;;
16543;SDS011;8384;47.996;7.786;2023-04-06T01:04:28;4.33;;;4.03;;
16543;SDS011;8384;47.996;7.786;2023-04-06T01:06:53;4.40;;;4.00;;
16543;SDS011;8384;47.996;7.786;2023-04-06T01:09:19;4.63;;;4.22;;
16543;SDS011;8384;47.996;7.786;2023-04-06T01:11:44;4.40;;;4.00;;
16543;SDS011;8384;47.996;7.786;2023-04-06T01:14:10;4.43;;;4.07;;
16543;SDS011;8384;47.996;7.786;2023-04-06T01:16:36;4.50;;;4.10;;
16543;SDS011;8384;47.996;7.786;2023-04-06T01:19:07;4.45;;;4.05;;
16543;SDS011;8384;47.996;7.786;2023-04-06T01:21:33;4.28;;;3.90;;
16543;SDS011;8384;47.996;7.786;2023-04-06T01:23:58;4.40;;;4.00;;
16543;SDS011;8384;47.996;7.786;2023-04-06T01:26:24;4.57;;;4.17;;
16543;SDS011;8384;47.996;7.786;2023-04-06T01:28:49;4.13;;;3.73;;
16543;SDS011;8384;47.996;7.786;2023-04-06T01:31:14;4.57;;;4.17;;
16543;SDS011;8384;47.996;7.786;2023-04-06T01:33:40;4.80;;;4.30;;
16543;SDS011;8384;47.996;7.786;2023-04-06T01:36:05;4.53;;;4.10;;
16543;SDS011;8384;47.996;7.786;2023-04-06T01:38:31;4.38;;;3.97;;
16543;SDS011;8384;47.996;7.786;2023-04-06T01:40:56;4.97;;;4.57;;
16543;SDS011;8384;47.996;7.786;2023-04-06T01:43:21;4.80;;;4.30;;
16543;SDS011;8384;47.996;7.786;2023-04-06T01:45:47;4.60;;;4.20;;
16543;SDS011;8384;47.996;7.786;2023-04-06T01:48:13;4.57;;;4.10;;
16543;SDS011;8384;47.996;7.786;2023-04-06T01:50:38;4.10;;;3.80;;
16543;SDS011;8384;47.996;7.786;2023-04-06T01:53:03;4.40;;;4.00;;
16543;SDS011;8384;47.996;7.786;2023-04-06T01:55:29;4.37;;;3.97;;
16543;SDS011;8384;47.996;7.786;2023-04-06T01:57:54;4.30;;;3.93;;
16543;SDS011;8384;47.996;7.786;2023-04-06T02:00:19;4.40;;;4.00;;
16543;SDS011;8384;47.996;7.786;2023-04-06T02:02:45;4.33;;;4.00;;
16543;SDS011;8384;47.996;7.786;2023-04-06T02:05:10;3.90;;;3.60;;
16543;SDS011;8384;47.996;7.786;2023-04-06T02:07:36;4.57;;;4.18;;
16543;SDS011;8384;47.996;7.786;2023-04-06T02:10:01;5.03;;;4.53;;
16543;SDS011;8384;47.996;7.786;2023-04-06T02:12:27;5.07;;;4.57;;
16543;SDS011;8384;47.996;7.786;2023-04-06T02:14:52;4.67;;;4.27;;
16543;SDS011;8384;47.996;7.786;2023-04-06T02:17:17;4.70;;;4.30;;
16543;SDS011;8384;47.996;7.786;2023-04-06T02:19:43;4.33;;;3.93;;
16543;SDS011;8384;47.996;7.786;2023-04-06T02:22:09;4.50;;;4.10;;
16543;SDS011;8384;47.996;7.786;2023-04-06T02:24:34;4.57;;;4.18;;
16543;SDS011;8384;47.996;7.786;2023-04-06T02:27:00;4.57;;;4.18;;
16543;SDS011;8384;47.996;7.786;2023-04-06T02:29:25;4.60;;;4.07;;
16543;SDS011;8384;47.996;7.786;2023-04-06T02:31:51;4.50;;;4.10;;
16543;SDS011;8384;47.996;7.786;2023-04-06T02:34:16;4.73;;;4.33;;
16543;SDS011;8384;47.996;7.786;2023-04-06T02:36:43;4.75;;;4.30;;
16543;SDS011;8384;47.996;7.786;2023-04-06T02:39:09;6.70;;;6.10;;
16543;SDS011;8384;47.996;7.786;2023-04-06T02:41:35;5.00;;;4.60;;
16543;SDS011;8384;47.996;7.786;2023-04-06T02:44:01;4.70;;;4.30;;
16543;SDS011;8384;47.996;7.786;2023-04-06T02:46:26;4.90;;;4.40;;
16543;SDS011;8384;47.996;7.786;2023-04-06T02:48:51;4.27;;;3.97;;
16543;SDS011;8384;47.996;7.786;2023-04-06T02:51:16;5.03;;;4.37;;
16543;SDS011;8384;47.996;7.786;2023-04-06T02:53:42;4.53;;;4.13;;
16543;SDS011;8384;47.996;7.786;2023-04-06T02:56:07;5.47;;;4.50;;
16543;SDS011;8384;47.996;7.786;2023-04-06T02:58:32;5.37;;;4.90;;
16543;SDS011;8384;47.996;7.786;2023-04-06T03:00:58;5.37;;;4.50;;
16543;SDS011;8384;47.996;7.786;2023-04-06T03:03:23;4.90;;;4.40;;
16543;SDS011;8384;47.996;7.786;2023-04-06T03:05:48;4.70;;;4.30;;
16543;SDS011;8384;47.996;7.786;2023-04-06T03:08:13;4.83;;;4.37;;
16543;SDS011;8384;47.996;7.786;2023-04-06T03:10:39;4.90;;;4.43;;
16543;SDS011;8384;47.996;7.786;2023-04-06T03:13:04;5.13;;;4.73;;
16543;SDS011;8384;47.996;7.786;2023-04-06T03:15:30;4.90;;;4.50;;
16543;SDS011;8384;47.996;7.786;2023-04-06T03:17:55;5.17;;;4.40;;
16543;SDS011;8384;47.996;7.786;2023-04-06T03:20:20;4.93;;;4.43;;
16543;SDS011;8384;47.996;7.786;2023-04-06T03:22:45;5.00;;;4.50;;
16543;SDS011;8384;47.996;7.786;2023-04-06T03:25:11;4.80;;;4.40;;
16543;SDS011;8384;47.996;7.786;2023-04-06T03:27:36;5.13;;;4.63;;
16543;SDS011;8384;47.996;7.786;2023-04-06T03:30:01;4.83;;;4.43;;
16543;SDS011;8384;47.996;7.786;2023-04-06T03:32:27;4.95;;;4.45;;
16543;SDS011;8384;47.996;7.786;2023-04-06T03:34:52;4.83;;;4.40;;
16543;SDS011;8384;47.996;7.786;2023-04-06T03:37:18;4.97;;;4.53;;
16543;SDS011;8384;47.996;7.786;2023-04-06T03:39:43;4.53;;;4.10;;
16543;SDS011;8384;47.996;7.786;2023-04-06T03:42:08;5.00;;;4.23;;
16543;SDS011;8384;47.996;7.786;2023-04-06T03:44:33;4.70;;;4.30;;
16543;SDS011;8384;47.996;7.786;2023-04-06T03:46:58;4.53;;;4.13;;
16543;SDS011;8384;47.996;7.786;2023-04-06T03:49:24;4.72;;;4.30;;
16543;SDS011;8384;47.996;7.786;2023-04-06T03:51:49;4.27;;;3.97;;
16543;SDS011;8384;47.996;7.786;2023-04-06T03:54:14;4.50;;;4.00;;
16543;SDS011;8384;47.996;7.786;2023-04-06T03:56:40;5.30;;;4.23;;
16543;SDS011;8384;47.996;7.786;2023-04-06T03:59:05;4.40;;;4.00;;
16543;SDS011;8384;47.996;7.786;2023-04-06T04:01:30;4.50;;;4.10;;
16543;SDS011;8384;47.996;7.786;2023-04-06T04:03:56;4.40;;;4.00;;
16543;SDS011;8384;47.996;7.786;2023-04-06T04:06:21;4.10;;;3.80;;
16543;SDS011;8384;47.996;7.786;2023-04-06T04:08:46;4.15;;;3.83;;
16543;SDS011;8384;47.996;7.786;2023-04-06T04:11:12;4.50;;;4.10;;
16543;SDS011;8384;47.996;7.786;2023-04-06T04:13:37;4.30;;;3.90;;
16543;SDS011;8384;47.996;7.786;2023-04-06T04:16:02;4.43;;;4.10;;
16543;SDS011;8384;47.996;7.786;2023-04-06T04:18:28;6.53;;;5.60;;
16543;SDS011;8384;47.996;7.786;2023-04-06T04:20:53;4.70;;;4.30;;
16543;SDS011;8384;47.996;7.786;2023-04-06T04:23:18;4.90;;;4.40;;
16543;SDS011;8384;47.996;7.786;2023-04-06T04:25:43;4.97;;;4.13;;
16543;SDS011;8384;47.996;7.786;2023-04-06T04:28:09;4.90;;;4.50;;
16543;SDS011;8384;47.996;7.786;2023-04-06T04:30:34;4.87;;;4.37;;
16543;SDS011;8384;47.996;7.786;2023-04-06T04:32:59;5.77;;;4.50;;
16543;SDS011;8384;47.996;7.786;2023-04-06T04:35:25;4.63;;;4.10;;
16543;SDS011;8384;47.996;7.786;2023-04-06T04:37:51;4.80;;;4.40;;
16543;SDS011;8384;47.996;7.786;2023-04-06T04:40:16;4.50;;;4.10;;
16543;SDS011;8384;47.996;7.786;2023-04-06T04:42:42;5.00;;;4.50;;
16543;SDS011;8384;47.996;7.786;2023-04-06T04:45:07;4.57;;;4.23;;
16543;SDS011;8384;47.996;7.786;2023-04-06T04:47:33;4.90;;;4.40;;
16543;SDS011;8384;47.996;7.786;2023-04-06T04:49:58;5.07;;;4.57;;
16543;SDS011;8384;47.996;7.786;2023-04-06T04:52:23;4.57;;;4.17;;
16543;SDS011;8384;47.996;7.786;2023-04-06T04:54:48;4.73;;;4.27;;
16543;SDS011;8384;47.996;7.786;2023-04-06T04:57:14;5.47;;;4.97;;
16543;SDS011;8384;47.996;7.786;2023-04-06T04:59:39;6.00;;;5.40;;
16543;SDS011;8384;47.996;7.786;2023-04-06T05:02:04;5.47;;;4.90;;
16543;SDS011;8384;47.996;7.786;2023-04-06T05:04:30;5.10;;;4.60;;
16543;SDS011;8384;47.996;7.786;2023-04-06T05:07:02;5.30;;;4.80;;
16543;SDS011;8384;47.996;7.786;2023-04-06T05:09:31;5.85;;;5.10;;
16543;SDS011;8384;47.996;7.786;2023-04-06T05:11:58;5.20;;;4.70;;
16543;SDS011;8384;47.996;7.786;2023-04-06T05:14:23;6.22;;;5.63;;
16543;SDS011;8384;47.996;7.786;2023-04-06T05:16:49;5.20;;;4.70;;
16543;SDS011;8384;47.996;7.786;2023-04-06T05:19:14;5.10;;;4.70;;
16543;SDS011;8384;47.996;7.786;2023-04-06T05:21:40;5.28;;;4.78;;
16543;SDS011;8384;47.996;7.786;2023-04-06T05:24:06;5.60;;;5.00;;
16543;SDS011;8384;47.996;7.786;2023-04-06T05:26:31;5.77;;;5.17;;
16543;SDS011;8384;47.996;7.786;2023-04-06T05:28:57;5.68;;;5.10;;
16543;SDS011;8384;47.996;7.786;2023-04-06T05:31:22;5.70;;;5.10;;
16543;SDS011;8384;47.996;7.786;2023-04-06T05:33:48;5.50;;;5.00;;
16543;SDS011;8384;47.996;7.786;2023-04-06T05:36:13;5.63;;;4.95;;
16543;SDS011;8384;47.996;7.786;2023-04-06T05:38:38;5.80;;;5.30;;
16543;SDS011;8384;47.996;7.786;2023-04-06T05:41:04;5.40;;;4.90;;
16543;SDS011;8384;47.996;7.786;2023-04-06T05:43:30;5.30;;;4.80;;
16543;SDS011;8384;47.996;7.786;2023-04-06T05:45:55;5.10;;;4.60;;
16543;SDS011;8384;47.996;7.786;2023-04-06T05:48:20;5.57;;;4.90;;
16543;SDS011;8384;47.996;7.786;2023-04-06T05:50:49;5.00;;;4.60;;
16543;SDS011;8384;47.996;7.786;2023-04-06T05:53:18;5.07;;;4.68;;
16543;SDS011;8384;47.996;7.786;2023-04-06T05:55:43;5.70;;;4.50;;
16543;SDS011;8384;47.996;7.786;2023-04-06T05:58:09;5.07;;;4.67;;
16543;SDS011;8384;47.996;7.786;2023-04-06T06:00:34;5.38;;;4.85;;
16543;SDS011;8384;47.996;7.786;2023-04-06T06:03:00;5.10;;;4.60;;
16543;SDS011;8384;47.996;7.786;2023-04-06T06:05:25;5.37;;;4.63;;
16543;SDS011;8384;47.996;7.786;2023-04-06T06:07:50;7.17;;;6.47;;
16543;SDS011;8384;47.996;7.786;2023-04-06T06:10:16;6.15;;;4.95;;
16543;SDS011;8384;47.996;7.786;2023-04-06T06:12:42;5.23;;;4.73;;
16543;SDS011;8384;47.996;7.786;2023-04-06T06:15:07;6.32;;;5.20;;
16543;SDS011;8384;47.996;7.786;2023-04-06T06:17:33;5.65;;;5.07;;
16543;SDS011;8384;47.996;7.786;2023-04-06T06:19:58;5.33;;;4.87;;
16543;SDS011;8384;47.996;7.786;2023-04-06T06:22:23;5.60;;;5.00;;
16543;SDS011;8384;47.996;7.786;2023-04-06T06:24:49;5.47;;;4.97;;
16543;SDS011;8384;47.996;7.786;2023-04-06T06:27:15;6.60;;;5.70;;
16543;SDS011;8384;47.996;7.786;2023-04-06T06:29:40;6.03;;;5.20;;
16543;SDS011;8384;47.996;7.786;2023-04-06T06:32:05;5.95;;;4.90;;
16543;SDS011;8384;47.996;7.786;2023-04-06T06:34:31;5.10;;;4.70;;
16543;SDS011;8384;47.996;7.786;2023-04-06T06:36:56;5.10;;;4.70;;
16543;SDS011;8384;47.996;7.786;2023-04-06T06:39:21;5.30;;;4.80;;
16543;SDS011;8384;47.996;7.786;2023-04-06T06:41:47;5.67;;;5.17;;
16543;SDS011;8384;47.996;7.786;2023-04-06T06:44:12;5.80;;;5.20;;
16543;SDS011;8384;47.996;7.786;2023-04-06T06:46:37;5.50;;;5.00;;
16543;SDS011;8384;47.996;7.786;2023-04-06T06:49:04;5.47;;;4.97;;
16543;SDS011;8384;47.996;7.786;2023-04-06T06:51:29;5.97;;;5.37;;
16543;SDS011;8384;47.996;7.786;2023-04-06T06:53:55;5.43;;;4.93;;
16543;SDS011;8384;47.996;7.786;2023-04-06T06:56:20;5.65;;;5.15;;
16543;SDS011;8384;47.996;7.786;2023-04-06T06:58:45;5.63;;;5.07;;
16543;SDS011;8384;47.996;7.786;2023-04-06T07:01:11;5.20;;;4.70;;
16543;SDS011;8384;47.996;7.786;2023-04-06T07:03:36;5.20;;;4.70;;
16543;SDS011;8384;47.996;7.786;2023-04-06T07:06:01;5.57;;;5.03;;
16543;SDS011;8384;47.996;7.786;2023-04-06T07:08:26;5.10;;;4.60;;
16543;SDS011;8384;47.996;7.786;2023-04-06T07:10:52;5.17;;;4.67;;
16543;SDS011;8384;47.996;7.786;2023-04-06T07:13:18;5.97;;;4.75;;
16543;SDS011;8384;47.996;7.786;2023-04-06T07:15:47;5.63;;;5.13;;
16543;SDS011;8384;47.996;7.786;2023-04-06T07:18:13;5.47;;;4.97;;
16543;SDS011;8384;47.996;7.786;2023-04-06T07:20:38;6.20;;;5.60;;
16543;SDS011;8384;47.996;7.786;2023-04-06T07:23:04;6.10;;;5.40;;
16543;SDS011;8384;47.996;7.786;2023-04-06T07:25:29;5.73;;;5.23;;
16543;SDS011;8384;47.996;7.786;2023-04-06T07:27:55;6.73;;;6.03;;
16543;SDS011;8384;47.996;7.786;2023-04-06T07:30:20;6.50;;;5.80;;
16543;SDS011;8384;47.996;7.786;2023-04-06T07:32:46;6.47;;;5.78;;
16543;SDS011;8384;47.996;7.786;2023-04-06T07:35:12;6.87;;;6.20;;
16543;SDS011;8384;47.996;7.786;2023-04-06T07:37:37;6.80;;;6.17;;
16543;SDS011;8384;47.996;7.786;2023-04-06T07:40:02;6.77;;;6.07;;
16543;SDS011;8384;47.996;7.786;2023-04-06T07:42:28;6.45;;;5.85;;
16543;SDS011;8384;47.996;7.786;2023-04-06T07:44:53;6.63;;;6.03;;
16543;SDS011;8384;47.996;7.786;2023-04-06T07:47:18;7.18;;;6.50;;
16543;SDS011;8384;47.996;7.786;2023-04-06T07:49:44;9.70;;;6.63;;
16543;SDS011;8384;47.996;7.786;2023-04-06T07:52:10;7.25;;;6.55;;
16543;SDS011;8384;47.996;7.786;2023-04-06T07:54:35;7.53;;;6.77;;
16543;SDS011;8384;47.996;7.786;2023-04-06T07:57:00;7.37;;;6.60;;
16543;SDS011;8384;47.996;7.786;2023-04-06T07:59:25;7.47;;;6.77;;
16543;SDS011;8384;47.996;7.786;2023-04-06T08:01:51;7.50;;;6.43;;
16543;SDS011;8384;47.996;7.786;2023-04-06T08:04:16;8.00;;;6.50;;
16543;SDS011;8384;47.996;7.786;2023-04-06T08:06:41;6.97;;;6.20;;
16543;SDS011;8384;47.996;7.786;2023-04-06T08:09:06;6.60;;;5.50;;
16543;SDS011;8384;47.996;7.786;2023-04-06T08:11:32;5.70;;;5.10;;
16543;SDS011;8384;47.996;7.786;2023-04-06T08:13:57;5.40;;;4.95;;
16543;SDS011;8384;47.996;7.786;2023-04-06T08:16:23;5.80;;;5.30;;
16543;SDS011;8384;47.996;7.786;2023-04-06T08:18:49;6.63;;;5.93;;
16543;SDS011;8384;47.996;7.786;2023-04-06T08:21:14;5.93;;;5.40;;
16543;SDS011;8384;47.996;7.786;2023-04-06T08:23:39;5.65;;;5.15;;
16543;SDS011;8384;47.996;7.786;2023-04-06T08:26:05;6.00;;;5.47;;
16543;SDS011;8384;47.996;7.786;2023-04-06T08:28:30;5.77;;;5.23;;
16543;SDS011;8384;47.996;7.786;2023-04-06T08:30:55;5.60;;;5.00;;
16543;SDS011;8384;47.996;7.786;2023-04-06T08:33:21;5.60;;;5.10;;
16543;SDS011;8384;47.996;7.786;2023-04-06T08:35:46;5.37;;;4.87;;
16543;SDS011;8384;47.996;7.786;2023-04-06T08:38:11;5.70;;;5.20;;
16543;SDS011;8384;47.996;7.786;2023-04-06T08:40:39;5.80;;;5.20;;
16543;SDS011;8384;47.996;7.786;2023-04-06T08:43:09;6.27;;;5.67;;
16543;SDS011;8384;47.996;7.786;2023-04-06T08:45:38;6.38;;;5.78;;
16543;SDS011;8384;47.996;7.786;2023-04-06T08:48:04;6.30;;;5.70;;
16543;SDS011;8384;47.996;7.786;2023-04-06T08:50:32;6.28;;;5.68;;
16543;SDS011;8384;47.996;7.786;2023-04-06T08:52:58;6.40;;;5.82;;
16543;SDS011;8384;47.996;7.786;2023-04-06T08:55:24;5.90;;;5.40;;
16543;SDS011;8384;47.996;7.786;2023-04-06T08:57:49;6.57;;;5.97;;
16543;SDS011;8384;47.996;7.786;2023-04-06T09:00:18;6.20;;;5.70;;
16543;SDS011;8384;47.996;7.786;2023-04-06T09:02:45;6.57;;;5.97;;
16543;SDS011;8384;47.996;7.786;2023-04-06T09:05:11;6.15;;;5.53;;
16543;SDS011;8384;47.996;7.786;2023-04-06T09:07:37;6.40;;;5.90;;
16543;SDS011;8384;47.996;7.786;2023-04-06T09:10:03;6.22;;;5.68;;
16543;SDS011;8384;47.996;7.786;2023-04-06T09:12:32;7.27;;;6.57;;
16543;SDS011;8384;47.996;7.786;2023-04-06T09:14:58;6.53;;;6.00;;
16543;SDS011;8384;47.996;7.786;2023-04-06T09:17:28;6.57;;;5.97;;
16543;SDS011;8384;47.996;7.786;2023-04-06T09:19:55;6.50;;;5.90;;
16543;SDS011;8384;47.996;7.786;2023-04-06T09:22:21;6.70;;;6.05;;
16543;SDS011;8384;47.996;7.786;2023-04-06T09:24:48;6.63;;;6.03;;
16543;SDS011;8384;47.996;7.786;2023-04-06T09:27:15;6.68;;;6.07;;
16543;SDS011;8384;47.996;7.786;2023-04-06T09:29:41;6.90;;;6.30;;
16543;SDS011;8384;47.996;7.786;2023-04-06T09:32:07;6.93;;;6.32;;
16543;SDS011;8384;47.996;7.786;2023-04-06T09:34:40;7.05;;;6.38;;
16543;SDS011;8384;47.996;7.786;2023-04-06T09:37:15;6.88;;;6.30;;
16543;SDS011;8384;47.996;7.786;2023-04-06T09:39:42;6.95;;;6.35;;
16543;SDS011;8384;47.996;7.786;2023-04-06T09:42:08;7.60;;;6.80;;
16543;SDS011;8384;47.996;7.786;2023-04-06T09:44:33;6.78;;;6.18;;
16543;SDS011;8384;47.996;7.786;2023-04-06T09:46:58;7.47;;;6.67;;
16543;SDS011;8384;47.996;7.786;2023-04-06T09:49:24;7.38;;;6.68;;
16543;SDS011;8384;47.996;7.786;2023-04-06T09:51:57;7.05;;;6.45;;
16543;SDS011;8384;47.996;7.786;2023-04-06T09:54:31;7.60;;;6.90;;
16543;SDS011;8384;47.996;7.786;2023-04-06T09:59:44;7.82;;;7.00;;
16543;SDS011;8384;47.996;7.786;2023-04-06T10:02:19;6.80;;;6.20;;
16543;SDS011;8384;47.996;7.786;2023-04-06T10:07:32;8.05;;;6.80;;
16543;SDS011;8384;47.996;7.786;2023-04-06T10:09:58;7.25;;;6.57;;
16543;SDS011;8384;47.996;7.786;2023-04-06T10:12:26;8.05;;;7.25;;
16543;SDS011;8384;47.996;7.786;2023-04-06T10:14:52;7.73;;;7.03;;
16543;SDS011;8384;47.996;7.786;2023-04-06T10:17:18;7.53;;;6.93;;
16543;SDS011;8384;47.996;7.786;2023-04-06T10:19:51;7.30;;;6.70;;
16543;SDS011;8384;47.996;7.786;2023-04-06T10:22:22;7.75;;;7.03;;
16543;SDS011;8384;47.996;7.786;2023-04-06T10:24:51;7.53;;;6.82;;
16543;SDS011;8384;47.996;7.786;2023-04-06T10:27:16;8.30;;;7.60;;
16543;SDS011;8384;47.996;7.786;2023-04-06T10:29:52;7.88;;;7.10;;
16543;SDS011;8384;47.996;7.786;2023-04-06T10:32:17;6.97;;;6.37;;
16543;SDS011;8384;47.996;7.786;2023-04-06T10:34:43;6.70;;;6.17;;
16543;SDS011;8384;47.996;7.786;2023-04-06T10:37:12;7.80;;;7.00;;
16543;SDS011;8384;47.996;7.786;2023-04-06T10:39:52;6.93;;;6.32;;
16543;SDS011;8384;47.996;7.786;2023-04-06T10:42:36;7.30;;;6.60;;
16543;SDS011;8384;47.996;7.786;2023-04-06T10:45:04;7.80;;;7.15;;
16543;SDS011;8384;47.996;7.786;2023-04-06T10:47:38;6.82;;;6.13;;
16543;SDS011;8384;47.996;7.786;2023-04-06T10:50:05;7.20;;;6.50;;
16543;SDS011;8384;47.996;7.786;2023-04-06T10:52:30;6.80;;;6.20;;
16543;SDS011;8384;47.996;7.786;2023-04-06T10:54:56;6.67;;;5.97;;
16543;SDS011;8384;47.996;7.786;2023-04-06T10:57:27;6.93;;;6.22;;
16543;SDS011;8384;47.996;7.786;2023-04-06T10:59:54;6.50;;;5.93;;
16543;SDS011;8384;47.996;7.786;2023-04-06T11:02:19;6.67;;;6.07;;
16543;SDS011;8384;47.996;7.786;2023-04-06T11:04:55;6.93;;;6.22;;
16543;SDS011;8384;47.996;7.786;2023-04-06T11:07:25;5.80;;;5.30;;
16543;SDS011;8384;47.996;7.786;2023-04-06T11:09:52;6.75;;;6.13;;
16543;SDS011;8384;47.996;7.786;2023-04-06T11:12:24;6.50;;;5.90;;
16543;SDS011;8384;47.996;7.786;2023-04-06T11:14:57;5.85;;;5.25;;
16543;SDS011;8384;47.996;7.786;2023-04-06T11:17:29;6.25;;;5.65;;
16543;SDS011;8384;47.996;7.786;2023-04-06T11:19:56;5.95;;;5.45;;
16543;SDS011;8384;47.996;7.786;2023-04-06T11:22:22;5.88;;;5.38;;
16543;SDS011;8384;47.996;7.786;2023-04-06T11:24:47;5.50;;;5.00;;
16543;SDS011;8384;47.996;7.786;2023-04-06T11:27:13;5.97;;;5.40;;
16543;SDS011;8384;47.996;7.786;2023-04-06T11:29:41;6.00;;;5.50;;
16543;SDS011;8384;47.996;7.786;2023-04-06T11:32:06;5.35;;;4.85;;
16543;SDS011;8384;47.996;7.786;2023-04-06T11:34:34;5.70;;;5.20;;
16543;SDS011;8384;47.996;7.786;2023-04-06T11:37:02;6.15;;;5.65;;
16543;SDS011;8384;47.996;7.786;2023-04-06T11:39:31;6.20;;;5.60;;
16543;SDS011;8384;47.996;7.786;2023-04-06T11:42:00;6.10;;;5.60;;
16543;SDS011;8384;47.996;7.786;2023-04-06T11:47:04;6.53;;;5.65;;
16543;SDS011;8384;47.996;7.786;2023-04-06T11:49:31;6.68;;;6.07;;
16543;SDS011;8384;47.996;7.786;2023-04-06T11:51:57;6.75;;;6.00;;
16543;SDS011;8384;47.996;7.786;2023-04-06T11:54:36;6.43;;;5.82;;
16543;SDS011;8384;47.996;7.786;2023-04-06T11:57:03;6.05;;;5.55;;
16543;SDS011;8384;47.996;7.786;2023-04-06T11:59:30;6.20;;;5.60;;
16543;SDS011;8384;47.996;7.786;2023-04-06T12:01:58;6.20;;;5.60;;
16543;SDS011;8384;47.996;7.786;2023-04-06T12:04:23;6.40;;;5.75;;
16543;SDS011;8384;47.996;7.786;2023-04-06T12:06:49;6.07;;;5.15;;
16543;SDS011;8384;47.996;7.786;2023-04-06T12:09:15;6.20;;;5.60;;
16543;SDS011;8384;47.996;7.786;2023-04-06T12:11:42;6.55;;;5.97;;
16543;SDS011;8384;47.996;7.786;2023-04-06T12:14:07;5.97;;;5.40;;
16543;SDS011;8384;47.996;7.786;2023-04-06T12:16:33;6.57;;;5.97;;
16543;SDS011;8384;47.996;7.786;2023-04-06T12:19:00;6.50;;;6.00;;
16543;SDS011;8384;47.996;7.786;2023-04-06T12:21:29;7.05;;;6.20;;
16543;SDS011;8384;47.996;7.786;2023-04-06T12:23:58;6.55;;;5.95;;
16543;SDS011;8384;47.996;7.786;2023-04-06T12:26:25;6.43;;;5.82;;
16543;SDS011;8384;47.996;7.786;2023-04-06T12:28:51;6.43;;;5.82;;
16543;SDS011;8384;47.996;7.786;2023-04-06T12:31:16;6.53;;;5.93;;
16543;SDS011;8384;47.996;7.786;2023-04-06T12:33:44;6.30;;;5.70;;
16543;SDS011;8384;47.996;7.786;2023-04-06T12:36:12;5.75;;;5.25;;
16543;SDS011;8384;47.996;7.786;2023-04-06T12:38:39;5.70;;;5.20;;
16543;SDS011;8384;47.996;7.786;2023-04-06T12:41:06;5.93;;;5.43;;
16543;SDS011;8384;47.996;7.786;2023-04-06T12:43:31;5.75;;;5.25;;
16543;SDS011;8384;47.996;7.786;2023-04-06T12:45:57;6.43;;;5.65;;
16543;SDS011;8384;47.996;7.786;2023-04-06T12:48:24;6.35;;;5.75;;
16543;SDS011;8384;47.996;7.786;2023-04-06T12:51:00;6.10;;;5.50;;
16543;SDS011;8384;47.996;7.786;2023-04-06T12:53:32;5.87;;;5.37;;
16543;SDS011;8384;47.996;7.786;2023-04-06T12:55:59;5.78;;;5.20;;
16543;SDS011;8384;47.996;7.786;2023-04-06T12:58:26;6.07;;;5.50;;
16543;SDS011;8384;47.996;7.786;2023-04-06T13:00:52;6.30;;;5.70;;
16543;SDS011;8384;47.996;7.786;2023-04-06T13:03:18;5.95;;;5.45;;
16543;SDS011;8384;47.996;7.786;2023-04-06T13:05:47;6.07;;;5.50;;
16543;SDS011;8384;47.996;7.786;2023-04-06T13:08:15;5.70;;;5.20;;
16543;SDS011;8384;47.996;7.786;2023-04-06T13:10:48;5.70;;;5.15;;
16543;SDS011;8384;47.996;7.786;2023-04-06T13:13:22;5.72;;;5.22;;
16543;SDS011;8384;47.996;7.786;2023-04-06T13:15:50;5.50;;;5.00;;
16543;SDS011;8384;47.996;7.786;2023-04-06T13:18:16;6.07;;;5.50;;
16543;SDS011;8384;47.996;7.786;2023-04-06T13:20:41;5.93;;;5.43;;
16543;SDS011;8384;47.996;7.786;2023-04-06T13:23:07;5.43;;;4.93;;
16543;SDS011;8384;47.996;7.786;2023-04-06T13:25:32;6.60;;;5.90;;
16543;SDS011;8384;47.996;7.786;2023-04-06T13:27:58;5.60;;;5.10;;
16543;SDS011;8384;47.996;7.786;2023-04-06T13:30:24;5.35;;;4.88;;
16543;SDS011;8384;47.996;7.786;2023-04-06T13:32:50;5.50;;;5.00;;
16543;SDS011;8384;47.996;7.786;2023-04-06T13:35:16;6.13;;;5.53;;
16543;SDS011;8384;47.996;7.786;2023-04-06T13:37:41;5.90;;;5.30;;
16543;SDS011;8384;47.996;7.786;2023-04-06T13:40:07;5.37;;;4.87;;
16543;SDS011;8384;47.996;7.786;2023-04-06T13:42:33;5.82;;;4.72;;
16543;SDS011;8384;47.996;7.786;2023-04-06T13:45:00;5.75;;;5.20;;
16543;SDS011;8384;47.996;7.786;2023-04-06T13:47:25;5.73;;;5.23;;
16543;SDS011;8384;47.996;7.786;2023-04-06T13:49:51;5.83;;;5.23;;
16543;SDS011;8384;47.996;7.786;2023-04-06T13:52:18;5.35;;;4.85;;
16543;SDS011;8384;47.996;7.786;2023-04-06T13:54:44;5.45;;;4.95;;
16543;SDS011;8384;47.996;7.786;2023-04-06T13:57:10;5.57;;;5.07;;
16543;SDS011;8384;47.996;7.786;2023-04-06T13:59:36;6.18;;;5.00;;
16543;SDS011;8384;47.996;7.786;2023-04-06T14:02:02;5.57;;;5.03;;
16543;SDS011;8384;47.996;7.786;2023-04-06T14:04:28;5.93;;;5.32;;
16543;SDS011;8384;47.996;7.786;2023-04-06T14:06:55;6.20;;;5.30;;
16543;SDS011;8384;47.996;7.786;2023-04-06T14:09:21;5.80;;;5.20;;
16543;SDS011;8384;47.996;7.786;2023-04-06T14:11:47;5.53;;;5.03;;
16543;SDS011;8384;47.996;7.786;2023-04-06T14:14:12;5.73;;;5.20;;
16543;SDS011;8384;47.996;7.786;2023-04-06T14:16:38;6.03;;;5.50;;
16543;SDS011;8384;47.996;7.786;2023-04-06T14:19:03;6.55;;;5.28;;
16543;SDS011;8384;47.996;7.786;2023-04-06T14:21:29;5.87;;;5.27;;
16543;SDS011;8384;47.996;7.786;2023-04-06T14:23:54;5.90;;;5.30;;
16543;SDS011;8384;47.996;7.786;2023-04-06T14:26:20;6.00;;;5.40;;
16543;SDS011;8384;47.996;7.786;2023-04-06T14:28:45;5.80;;;5.30;;
16543;SDS011;8384;47.996;7.786;2023-04-06T14:31:14;6.03;;;5.30;;
16543;SDS011;8384;47.996;7.786;2023-04-06T14:33:41;6.00;;;5.40;;
16543;SDS011;8384;47.996;7.786;2023-04-06T14:36:06;5.90;;;5.30;;
16543;SDS011;8384;47.996;7.786;2023-04-06T14:38:32;6.50;;;5.57;;
16543;SDS011;8384;47.996;7.786;2023-04-06T14:40:58;5.80;;;5.17;;
16543;SDS011;8384;47.996;7.786;2023-04-06T14:43:23;6.07;;;5.40;;
16543;SDS011;8384;47.996;7.786;2023-04-06T14:45:50;6.20;;;5.60;;
16543;SDS011;8384;47.996;7.786;2023-04-06T14:48:15;5.90;;;5.20;;
16543;SDS011;8384;47.996;7.786;2023-04-06T14:50:51;5.57;;;5.00;;
16543;SDS011;8384;47.996;7.786;2023-04-06T14:53:20;6.22;;;5.20;;
16543;SDS011;8384;47.996;7.786;2023-04-06T14:55:46;5.85;;;5.25;;
16543;SDS011;8384;47.996;7.786;2023-04-06T14:58:11;6.30;;;5.18;;
16543;SDS011;8384;47.996;7.786;2023-04-06T15:00:41;5.80;;;5.20;;
16543;SDS011;8384;47.996;7.786;2023-04-06T15:03:06;5.90;;;5.30;;